createdAt,value
2023-01-10T00:00:13.602Z,59.04
2023-01-10T00:02:40.803Z,59.17
2023-01-10T00:05:07.777Z,58.96
2023-01-10T00:07:34.269Z,59.04
2023-01-10T00:10:01.307Z,58.98
2023-01-10T00:12:28.465Z,59.01
2023-01-10T00:14:55.243Z,59.26
2023-01-10T00:17:21.650Z,59.04
2023-01-10T00:19:48.424Z,58.98
2023-01-10T00:22:14.885Z,58.91
2023-01-10T00:24:41.600Z,59.29
2023-01-10T00:27:08.112Z,59.11
2023-01-10T00:29:34.936Z,59.02
2023-01-10T00:32:01.380Z,59.22
2023-01-10T00:34:28.413Z,59.17
2023-01-10T00:36:55.425Z,58.97
2023-01-10T00:39:21.971Z,59.13
2023-01-10T00:41:48.563Z,59.08
2023-01-10T00:44:15.376Z,58.98
2023-01-10T00:46:41.929Z,59.21
2023-01-10T00:49:08.737Z,59.08
2023-01-10T00:51:35.305Z,59.32
2023-01-10T00:54:02.008Z,59.19
2023-01-10T00:56:30.512Z,59.20
2023-01-10T00:58:57.463Z,59.05
2023-01-10T01:01:24.237Z,59.23
2023-01-10T01:03:50.830Z,59.22
2023-01-10T01:06:17.233Z,59.22
2023-01-10T01:08:44.031Z,59.15
2023-01-10T01:11:10.966Z,59.12
2023-01-10T01:13:37.864Z,59.29
2023-01-10T01:16:04.395Z,59.00
2023-01-10T01:18:31.211Z,59.10
2023-01-10T01:20:58.082Z,59.23
2023-01-10T01:23:24.795Z,58.98
2023-01-10T01:25:51.245Z,59.14
2023-01-10T01:28:17.705Z,59.43
2023-01-10T01:30:44.456Z,59.29
2023-01-10T01:33:10.957Z,59.02
2023-01-10T01:35:37.507Z,59.29
2023-01-10T01:38:04.101Z,59.27
2023-01-10T01:40:30.588Z,59.19
2023-01-10T01:42:57.101Z,59.39
2023-01-10T01:45:23.523Z,59.13
2023-01-10T01:47:50.375Z,59.25
2023-01-10T01:50:16.929Z,59.26
2023-01-10T01:52:43.964Z,59.12
2023-01-10T01:55:10.643Z,59.43
2023-01-10T01:57:37.183Z,59.15
2023-01-10T02:00:04.020Z,59.21
2023-01-10T02:02:31.137Z,59.08
2023-01-10T02:04:58.899Z,59.28
2023-01-10T02:07:25.695Z,59.40
2023-01-10T02:09:52.351Z,59.33
2023-01-10T02:12:19.251Z,59.26
2023-01-10T02:14:45.795Z,59.38
2023-01-10T02:17:12.514Z,59.25
2023-01-10T02:19:38.956Z,59.41
2023-01-10T02:22:05.512Z,59.28
2023-01-10T02:24:32.051Z,59.27
2023-01-10T02:26:58.624Z,59.16
2023-01-10T02:29:25.659Z,59.47
2023-01-10T02:31:52.179Z,59.26
2023-01-10T02:34:19.042Z,59.46
2023-01-10T02:36:45.891Z,59.29
2023-01-10T02:39:12.559Z,59.23
2023-01-10T02:41:39.164Z,59.44
2023-01-10T02:44:05.810Z,59.24
2023-01-10T02:46:32.630Z,59.39
2023-01-10T02:48:59.194Z,59.39
2023-01-10T02:51:25.731Z,59.21
2023-01-10T02:53:52.909Z,59.43
2023-01-10T02:56:19.411Z,59.16
2023-01-10T02:58:45.933Z,59.19
2023-01-10T03:01:12.736Z,59.18
2023-01-10T03:03:39.519Z,59.27
2023-01-10T03:06:05.957Z,59.23
2023-01-10T03:08:32.908Z,59.31
2023-01-10T03:10:59.487Z,59.36
2023-01-10T03:13:26.433Z,59.36
2023-01-10T03:15:53.248Z,59.24
2023-01-10T03:18:19.834Z,59.41
2023-01-10T03:20:47.074Z,59.43
2023-01-10T03:23:13.798Z,59.31
2023-01-10T03:25:40.585Z,59.40
2023-01-10T03:28:07.462Z,59.41
2023-01-10T03:30:34.081Z,59.40
2023-01-10T03:33:00.576Z,59.25
2023-01-10T03:35:27.652Z,59.49
2023-01-10T03:37:54.114Z,59.29
2023-01-10T03:40:20.961Z,59.48
2023-01-10T03:42:47.892Z,59.26
2023-01-10T03:45:14.437Z,59.52
2023-01-10T03:47:41.371Z,59.53
2023-01-10T03:50:07.863Z,59.48
2023-01-10T03:52:34.487Z,59.52
2023-01-10T03:55:00.871Z,59.37
2023-01-10T03:57:28.176Z,59.16
2023-01-10T03:59:55.075Z,59.22
2023-01-10T04:02:21.703Z,59.22
2023-01-10T04:04:48.205Z,59.18
2023-01-10T04:07:15.252Z,59.39
2023-01-10T04:09:42.101Z,59.37
2023-01-10T04:12:08.624Z,59.24
2023-01-10T04:14:35.150Z,59.47
2023-01-10T04:17:01.846Z,59.29
2023-01-10T04:19:28.358Z,59.57
2023-01-10T04:21:55.155Z,59.34
2023-01-10T04:24:22.505Z,59.42
2023-01-10T04:26:49.368Z,59.47
2023-01-10T04:29:15.916Z,59.60
2023-01-10T04:31:42.527Z,59.41
2023-01-10T04:34:09.430Z,59.30
2023-01-10T04:36:36.159Z,59.10
2023-01-10T04:39:02.712Z,59.48
2023-01-10T04:41:29.619Z,59.54
2023-01-10T04:43:56.740Z,59.50
2023-01-10T04:46:23.226Z,59.62
2023-01-10T04:48:49.706Z,59.22
2023-01-10T04:51:16.164Z,59.57
2023-01-10T04:53:42.717Z,59.29
2023-01-10T04:56:09.594Z,59.35
2023-01-10T04:58:36.613Z,59.40
2023-01-10T05:01:03.689Z,59.39
2023-01-10T05:03:30.322Z,59.53
2023-01-10T05:05:57.121Z,59.31
2023-01-10T05:08:23.661Z,59.58
2023-01-10T05:10:50.613Z,59.61
2023-01-10T05:13:18.094Z,59.62
2023-01-10T05:15:44.830Z,59.29
2023-01-10T05:18:11.670Z,59.27
2023-01-10T05:20:38.141Z,59.23
2023-01-10T05:23:05.104Z,59.52
2023-01-10T05:25:32.229Z,59.37
2023-01-10T05:27:59.203Z,59.31
2023-01-10T05:30:25.971Z,59.46
2023-01-10T05:32:52.554Z,59.32
2023-01-10T05:35:19.239Z,59.65
2023-01-10T05:37:45.784Z,59.52
2023-01-10T05:40:12.353Z,59.68
2023-01-10T05:42:39.562Z,59.35
2023-01-10T05:45:06.073Z,59.46
2023-01-10T05:47:32.546Z,59.78
2023-01-10T05:49:59.153Z,59.45
2023-01-10T05:52:25.682Z,59.40
2023-01-10T05:54:52.419Z,59.42
2023-01-10T05:57:19.291Z,59.62
2023-01-10T05:59:46.022Z,59.51
2023-01-10T06:02:12.591Z,59.65
2023-01-10T06:04:39.459Z,59.62
2023-01-10T06:07:06.231Z,59.74
2023-01-10T06:09:32.866Z,59.64
2023-01-10T06:11:59.258Z,59.69
2023-01-10T06:14:26.133Z,59.65
2023-01-10T06:16:53.526Z,59.32
2023-01-10T06:19:20.482Z,59.40
2023-01-10T06:21:47.759Z,59.73
2023-01-10T06:24:14.248Z,59.73
2023-01-10T06:26:41.381Z,59.67
2023-01-10T06:29:08.856Z,59.45
2023-01-10T06:31:35.435Z,59.70
2023-01-10T06:34:01.953Z,59.66
2023-01-10T06:36:28.452Z,59.70
2023-01-10T06:38:55.223Z,59.69
2023-01-10T06:41:21.705Z,59.39
2023-01-10T06:43:48.117Z,59.85
2023-01-10T06:46:14.793Z,59.92
2023-01-10T06:48:41.440Z,59.90
2023-01-10T06:51:07.924Z,59.90
2023-01-10T06:53:35.060Z,59.75
2023-01-10T06:56:01.606Z,59.91
2023-01-10T06:58:28.050Z,59.85
2023-01-10T07:00:54.744Z,60.02
2023-01-10T07:03:21.802Z,59.96
2023-01-10T07:05:48.422Z,60.00
2023-01-10T07:08:15.278Z,60.13
2023-01-10T07:10:42.121Z,59.83
2023-01-10T07:13:08.868Z,60.03
2023-01-10T07:15:35.218Z,59.81
2023-01-10T07:18:01.686Z,59.67
2023-01-10T07:20:28.294Z,59.96
2023-01-10T07:22:55.124Z,59.91
2023-01-10T07:25:21.551Z,59.96
2023-01-10T07:27:47.897Z,59.73
2023-01-10T07:30:14.783Z,59.67
2023-01-10T07:32:41.584Z,60.13
2023-01-10T07:35:08.350Z,60.10
2023-01-10T07:37:35.175Z,59.94
2023-01-10T07:40:02.360Z,59.86
2023-01-10T07:42:29.523Z,60.20
2023-01-10T07:44:56.318Z,60.27
2023-01-10T07:47:23.561Z,59.96
2023-01-10T07:49:50.313Z,60.13
2023-01-10T07:52:17.043Z,59.97
2023-01-10T07:54:43.743Z,60.10
2023-01-10T07:57:10.566Z,60.11
2023-01-10T07:59:37.197Z,60.34
2023-01-10T08:02:04.947Z,60.18
2023-01-10T08:04:31.891Z,60.42
2023-01-10T08:06:58.905Z,60.42
2023-01-10T08:09:25.732Z,60.32
2023-01-10T08:11:52.713Z,60.22
2023-01-10T08:14:19.393Z,60.48
2023-01-10T08:16:46.487Z,60.40
2023-01-10T08:19:12.912Z,60.19
2023-01-10T08:21:39.825Z,60.36
2023-01-10T08:24:07.867Z,60.27
2023-01-10T08:26:34.294Z,60.40
2023-01-10T08:29:00.661Z,60.31
2023-01-10T08:31:27.068Z,60.55
2023-01-10T08:33:53.906Z,60.52
2023-01-10T08:36:20.858Z,60.53
2023-01-10T08:38:47.669Z,60.31
2023-01-10T08:41:14.147Z,60.51
2023-01-10T08:43:40.933Z,60.31
2023-01-10T08:46:08.345Z,60.60
2023-01-10T08:48:35.206Z,60.57
2023-01-10T08:51:01.951Z,60.23
2023-01-10T08:53:28.451Z,60.66
2023-01-10T08:55:54.941Z,60.61
2023-01-10T08:58:21.470Z,60.33
2023-01-10T09:00:48.148Z,60.55
2023-01-10T09:03:15.543Z,60.61
2023-01-10T09:05:42.406Z,60.44
2023-01-10T09:08:09.618Z,60.55
2023-01-10T09:10:36.211Z,60.80
2023-01-10T09:13:02.646Z,60.64
2023-01-10T09:15:29.634Z,60.78
2023-01-10T09:17:56.448Z,60.74
2023-01-10T09:20:23.004Z,60.95
2023-01-10T09:22:49.435Z,60.93
2023-01-10T09:25:16.149Z,60.90
2023-01-10T09:27:42.796Z,60.73
2023-01-10T09:30:10.013Z,60.78
2023-01-10T09:32:37.390Z,60.74
2023-01-10T09:35:04.405Z,60.78
2023-01-10T09:37:31.108Z,60.93
2023-01-10T09:39:57.553Z,60.65
2023-01-10T09:42:24.634Z,60.78
2023-01-10T09:44:51.488Z,60.71
2023-01-10T09:47:22.851Z,60.36
2023-01-10T09:49:49.914Z,60.78
2023-01-10T09:52:16.325Z,60.79
2023-01-10T09:54:42.724Z,60.49
2023-01-10T09:57:09.574Z,60.65
2023-01-10T09:59:36.563Z,60.75
2023-01-10T10:02:02.996Z,60.61
2023-01-10T10:04:29.477Z,60.51
2023-01-10T10:06:56.324Z,60.50
2023-01-10T10:09:22.853Z,60.61
2023-01-10T10:11:49.725Z,60.35
2023-01-10T10:14:16.143Z,60.77
2023-01-10T10:16:42.935Z,60.45
2023-01-10T10:19:09.446Z,60.61
2023-01-10T10:21:36.422Z,60.61
2023-01-10T10:24:03.493Z,60.39
2023-01-10T10:26:30.293Z,60.65
2023-01-10T10:28:57.053Z,60.61
2023-01-10T10:31:23.672Z,60.42
2023-01-10T10:33:50.610Z,60.71
2023-01-10T10:36:17.568Z,60.77
2023-01-10T10:38:44.305Z,60.59
2023-01-10T10:41:10.880Z,60.44
2023-01-10T10:43:37.836Z,60.63
2023-01-10T10:46:04.456Z,60.81
2023-01-10T10:48:31.517Z,61.13
2023-01-10T10:50:58.360Z,61.20
2023-01-10T10:53:24.834Z,61.12
2023-01-10T10:55:51.300Z,61.07
2023-01-10T10:58:17.654Z,61.31
2023-01-10T11:00:44.739Z,60.90
2023-01-10T11:03:11.578Z,61.14
2023-01-10T11:05:38.606Z,61.17
2023-01-10T11:08:05.111Z,61.42
2023-01-10T11:10:31.460Z,61.36
2023-01-10T11:12:58.110Z,61.19
2023-01-10T11:15:24.686Z,61.01
2023-01-10T11:17:51.220Z,61.03
2023-01-10T11:20:18.504Z,61.25
2023-01-10T11:22:45.003Z,61.37
2023-01-10T11:25:11.447Z,61.40
2023-01-10T11:27:39.004Z,61.37
2023-01-10T11:30:05.431Z,61.42
2023-01-10T11:32:31.821Z,61.19
2023-01-10T11:34:58.506Z,61.20
2023-01-10T11:37:24.859Z,61.04
2023-01-10T11:39:51.200Z,61.15
2023-01-10T11:42:17.739Z,61.56
2023-01-10T11:44:44.488Z,61.40
2023-01-10T11:47:10.942Z,61.34
2023-01-10T11:49:37.411Z,61.21
2023-01-10T11:52:03.774Z,61.23
2023-01-10T11:54:30.227Z,61.29
2023-01-10T11:56:59.478Z,61.37
2023-01-10T11:59:26.222Z,61.30
2023-01-10T12:01:52.850Z,61.18
2023-01-10T12:04:19.296Z,61.65
2023-01-10T12:06:45.799Z,61.37
2023-01-10T12:09:12.280Z,61.23
2023-01-10T12:11:38.601Z,61.49
2023-01-10T12:14:05.123Z,61.29
2023-01-10T12:16:32.229Z,61.54
2023-01-10T12:18:58.628Z,61.30
2023-01-10T12:21:25.818Z,61.39
2023-01-10T12:23:52.212Z,61.41
2023-01-10T12:26:18.787Z,61.47
2023-01-10T12:28:45.861Z,61.46
2023-01-10T12:31:12.221Z,61.16
2023-01-10T12:33:38.981Z,61.32
2023-01-10T12:36:05.685Z,61.30
2023-01-10T12:38:33.177Z,61.48
2023-01-10T12:40:59.676Z,61.26
2023-01-10T12:43:26.648Z,61.59
2023-01-10T12:45:53.724Z,61.44
2023-01-10T12:48:20.880Z,61.04
2023-01-10T12:50:47.664Z,61.24
2023-01-10T12:53:14.671Z,61.20
2023-01-10T12:55:40.972Z,61.30
2023-01-10T12:58:07.854Z,61.20
2023-01-10T13:00:40.552Z,61.13
2023-01-10T13:03:13.910Z,61.28
2023-01-10T13:05:40.308Z,61.26
2023-01-10T13:08:07.066Z,61.02
2023-01-10T13:10:33.415Z,60.93
2023-01-10T13:13:00.223Z,61.14
2023-01-10T13:15:27.008Z,60.96
2023-01-10T13:17:54.156Z,61.13
2023-01-10T13:20:20.589Z,61.05
2023-01-10T13:22:47.515Z,61.00
2023-01-10T13:25:15.657Z,60.80
2023-01-10T13:27:42.281Z,60.94
2023-01-10T13:30:08.775Z,60.86
2023-01-10T13:32:35.880Z,60.90
2023-01-10T13:35:03.309Z,60.66
2023-01-10T13:37:30.076Z,60.99
2023-01-10T13:39:56.966Z,61.11
2023-01-10T13:42:23.740Z,61.08
2023-01-10T13:44:50.647Z,61.08
2023-01-10T13:47:17.079Z,61.05
2023-01-10T13:49:43.521Z,60.86
2023-01-10T13:52:10.348Z,60.92
2023-01-10T13:54:36.978Z,60.82
2023-01-10T13:57:03.576Z,61.03
2023-01-10T13:59:30.097Z,60.74
2023-01-10T14:01:56.766Z,61.08
2023-01-10T14:04:24.090Z,60.84
2023-01-10T14:06:50.497Z,60.76
2023-01-10T14:09:18.554Z,60.98
2023-01-10T14:11:46.232Z,60.44
2023-01-10T14:14:13.318Z,60.66
2023-01-10T14:19:06.673Z,60.48
2023-01-10T14:21:33.064Z,60.41
2023-01-10T14:23:59.441Z,60.32
2023-01-10T14:26:26.390Z,60.16
2023-01-10T14:28:53.452Z,60.43
2023-01-10T14:31:20.000Z,60.37
2023-01-10T14:33:46.585Z,60.06
2023-01-10T14:36:13.135Z,59.91
2023-01-10T14:38:39.532Z,59.95
2023-01-10T14:41:06.377Z,60.27
2023-01-10T14:43:33.343Z,59.94
2023-01-10T14:45:59.934Z,60.06
2023-01-10T14:48:26.581Z,59.82
2023-01-10T14:50:52.975Z,59.73
2023-01-10T14:53:19.683Z,59.67
2023-01-10T14:55:46.572Z,59.88
2023-01-10T14:58:13.652Z,60.00
2023-01-10T15:00:40.254Z,59.84
2023-01-10T15:03:06.995Z,59.94
2023-01-10T15:05:33.565Z,59.69
2023-01-10T15:08:00.322Z,59.49
2023-01-10T15:10:26.827Z,59.70
2023-01-10T15:12:53.231Z,59.70
2023-01-10T15:15:19.736Z,59.61
2023-01-10T15:17:46.164Z,59.28
2023-01-10T15:20:13.281Z,59.05
2023-01-10T15:22:40.246Z,59.21
2023-01-10T15:25:06.638Z,59.48
2023-01-10T15:27:33.036Z,59.42
2023-01-10T15:29:59.460Z,59.15
2023-01-10T15:32:25.807Z,59.71
2023-01-10T15:34:52.528Z,59.76
2023-01-10T15:37:19.855Z,59.90
2023-01-10T15:39:46.841Z,59.88
2023-01-10T15:42:13.179Z,59.68
2023-01-10T15:44:39.986Z,59.71
2023-01-10T15:47:06.343Z,59.86
2023-01-10T15:49:32.722Z,59.99
2023-01-10T15:51:59.123Z,60.00
2023-01-10T15:54:25.543Z,59.85
2023-01-10T15:56:52.676Z,59.67
2023-01-10T15:59:19.763Z,59.95
2023-01-10T16:01:46.822Z,59.54
2023-01-10T16:04:13.706Z,59.65
2023-01-10T16:06:40.141Z,59.76
2023-01-10T16:09:06.750Z,59.54
2023-01-10T16:11:33.078Z,59.66
2023-01-10T16:13:59.517Z,59.71
2023-01-10T16:16:25.858Z,59.31
2023-01-10T16:18:52.990Z,59.28
2023-01-10T16:21:19.430Z,59.37
2023-01-10T16:23:45.917Z,59.41
2023-01-10T16:26:12.533Z,59.21
2023-01-10T16:28:39.433Z,58.96
2023-01-10T16:31:06.855Z,59.28
2023-01-10T16:33:33.453Z,59.13
2023-01-10T16:36:00.338Z,58.73
2023-01-10T16:38:26.673Z,59.19
2023-01-10T16:40:53.150Z,58.80
2023-01-10T16:43:20.158Z,58.97
2023-01-10T16:45:47.170Z,58.89
2023-01-10T16:48:13.798Z,59.03
2023-01-10T16:50:40.663Z,58.56
2023-01-10T16:53:07.632Z,58.77
2023-01-10T16:55:34.487Z,58.73
2023-01-10T16:58:00.965Z,58.50
2023-01-10T17:00:27.523Z,58.60
2023-01-10T17:02:53.920Z,58.27
2023-01-10T17:05:20.273Z,58.37
2023-01-10T17:07:47.415Z,57.95
2023-01-10T17:10:14.303Z,58.41
2023-01-10T17:12:41.182Z,58.23
2023-01-10T17:15:07.757Z,58.16
2023-01-10T17:17:34.219Z,58.22
2023-01-10T17:20:01.172Z,57.95
2023-01-10T17:22:28.198Z,58.01
2023-01-10T17:24:54.549Z,57.67
2023-01-10T17:27:21.113Z,57.57
2023-01-10T17:29:48.055Z,57.59
2023-01-10T17:32:14.505Z,57.77
2023-01-10T17:34:41.467Z,58.83
2023-01-10T17:37:08.639Z,59.06
2023-01-10T17:39:36.271Z,59.02
2023-01-10T17:42:03.080Z,59.22
2023-01-10T17:44:29.456Z,59.90
2023-01-10T17:46:56.585Z,59.58
2023-01-10T17:49:23.139Z,59.79
2023-01-10T17:51:49.561Z,59.75
2023-01-10T17:54:16.373Z,59.62
2023-01-10T17:56:43.180Z,59.87
2023-01-10T17:59:10.088Z,59.89
2023-01-10T18:01:36.736Z,60.21
2023-01-10T18:04:03.672Z,59.94
2023-01-10T18:06:30.145Z,59.97
2023-01-10T18:08:56.715Z,60.06
2023-01-10T18:11:23.033Z,59.90
2023-01-10T18:13:49.677Z,60.03
2023-01-10T18:16:16.341Z,59.98
2023-01-10T18:18:43.063Z,60.33
2023-01-10T18:21:09.476Z,60.03
2023-01-10T18:23:35.969Z,60.37
2023-01-10T18:26:02.726Z,60.10
2023-01-10T18:28:40.478Z,60.23
2023-01-10T18:31:07.124Z,59.96
2023-01-10T18:33:34.129Z,59.85
2023-01-10T18:36:01.116Z,59.82
2023-01-10T18:38:27.644Z,59.45
2023-01-10T18:40:54.836Z,59.57
2023-01-10T18:43:21.740Z,59.77
2023-01-10T18:45:48.117Z,59.63
2023-01-10T18:48:14.990Z,59.58
2023-01-10T18:50:41.503Z,59.75
2023-01-10T18:53:08.704Z,59.66
2023-01-10T18:55:35.940Z,59.93
2023-01-10T18:58:02.696Z,59.91
2023-01-10T19:00:29.552Z,60.14
2023-01-10T19:02:56.459Z,60.32
2023-01-10T19:05:23.314Z,60.40
2023-01-10T19:07:50.254Z,60.36
2023-01-10T19:10:17.444Z,60.32
2023-01-10T19:12:43.903Z,60.75
2023-01-10T19:15:11.370Z,60.94
2023-01-10T19:17:38.432Z,60.79
2023-01-10T19:20:05.073Z,61.08
2023-01-10T19:22:32.573Z,61.21
2023-01-10T19:24:58.977Z,61.03
2023-01-10T19:27:25.395Z,61.14
2023-01-10T19:29:51.937Z,60.90
2023-01-10T19:32:18.322Z,60.81
2023-01-10T19:34:46.427Z,60.48
2023-01-10T19:37:13.895Z,60.60
2023-01-10T19:39:40.482Z,60.66
2023-01-10T19:42:06.881Z,60.73
2023-01-10T19:44:33.325Z,60.60
2023-01-10T19:46:59.768Z,60.82
2023-01-10T19:49:26.226Z,60.35
2023-01-10T19:51:52.976Z,60.71
2023-01-10T19:54:20.356Z,60.38
2023-01-10T19:56:47.795Z,60.35
2023-01-10T19:59:14.384Z,60.58
2023-01-10T20:01:41.596Z,60.27
2023-01-10T20:04:07.912Z,60.23
2023-01-10T20:06:35.237Z,60.21
2023-01-10T20:09:02.166Z,60.52
2023-01-10T20:11:28.859Z,60.39
2023-01-10T20:13:55.795Z,60.31
2023-01-10T20:16:22.422Z,60.11
2023-01-10T20:18:49.177Z,60.25
2023-01-10T20:21:16.450Z,60.03
2023-01-10T20:23:42.785Z,60.20
2023-01-10T20:26:09.980Z,59.88
2023-01-10T20:28:36.523Z,60.30
2023-01-10T20:31:02.989Z,59.98
2023-01-10T20:33:29.367Z,60.07
2023-01-10T20:35:55.842Z,59.55
2023-01-10T20:38:22.851Z,59.41
2023-01-10T20:40:49.394Z,59.33
2023-01-10T20:43:15.976Z,59.18
2023-01-10T20:45:42.389Z,59.17
2023-01-10T20:48:09.182Z,59.04
2023-01-10T20:50:36.072Z,59.32
2023-01-10T20:53:03.140Z,59.56
2023-01-10T20:55:29.874Z,59.10
2023-01-10T20:57:56.929Z,59.14
2023-01-10T21:00:23.460Z,58.81
2023-01-10T21:02:50.378Z,58.46
2023-01-10T21:05:16.975Z,58.16
2023-01-10T21:07:43.611Z,57.89
2023-01-10T21:10:10.480Z,58.07
2023-01-10T21:12:37.441Z,57.66
2023-01-10T21:15:04.242Z,57.84
2023-01-10T21:17:30.653Z,57.48
2023-01-10T21:19:58.148Z,56.60
2023-01-10T21:22:25.078Z,56.19
2023-01-10T21:24:51.724Z,56.44
2023-01-10T21:27:18.890Z,56.26
2023-01-10T21:29:45.432Z,56.49
2023-01-10T21:32:11.855Z,56.18
2023-01-10T21:34:38.346Z,56.61
2023-01-10T21:37:05.029Z,56.45
2023-01-10T21:39:31.704Z,56.66
2023-01-10T21:41:58.668Z,56.91
2023-01-10T21:44:25.144Z,56.93
2023-01-10T21:46:52.030Z,56.63
2023-01-10T21:49:18.504Z,56.94
2023-01-10T21:51:44.944Z,56.90
2023-01-10T21:54:11.394Z,56.83
2023-01-10T21:56:37.752Z,57.11
2023-01-10T21:59:04.161Z,56.84
2023-01-10T22:01:30.606Z,56.72
2023-01-10T22:03:57.196Z,56.86
2023-01-10T22:06:23.640Z,56.81
2023-01-10T22:08:50.099Z,57.06
2023-01-10T22:11:16.652Z,57.25
2023-01-10T22:13:43.022Z,56.28
2023-01-10T22:16:09.554Z,55.77
2023-01-10T22:18:36.101Z,55.91
2023-01-10T22:21:02.815Z,56.28
2023-01-10T22:23:29.403Z,56.12
2023-01-10T22:25:55.984Z,56.50
2023-01-10T22:28:22.375Z,56.08
2023-01-10T22:30:48.801Z,56.53
2023-01-10T22:33:15.215Z,56.28
2023-01-10T22:35:41.690Z,56.31
2023-01-10T22:38:08.279Z,56.72
2023-01-10T22:40:34.632Z,56.54
2023-01-10T22:43:01.159Z,56.77
2023-01-10T22:45:27.854Z,56.50
2023-01-10T22:47:55.235Z,56.63
2023-01-10T22:50:21.643Z,56.69
2023-01-10T22:52:48.284Z,56.48
2023-01-10T22:55:14.763Z,56.86
2023-01-10T22:57:47.277Z,56.86
2023-01-10T23:00:13.985Z,56.93
2023-01-10T23:02:40.706Z,56.78
2023-01-10T23:05:07.314Z,56.63
2023-01-10T23:07:33.755Z,56.73
2023-01-10T23:10:00.136Z,56.85
2023-01-10T23:12:26.968Z,56.77
2023-01-10T23:14:54.743Z,56.48
2023-01-10T23:17:22.019Z,56.84
2023-01-10T23:19:49.030Z,56.91
2023-01-10T23:22:15.677Z,56.49
2023-01-10T23:24:42.985Z,56.43
2023-01-10T23:27:09.924Z,56.57
2023-01-10T23:29:36.221Z,56.74
2023-01-10T23:32:03.199Z,56.80
2023-01-10T23:34:29.696Z,56.73
2023-01-10T23:36:56.466Z,56.49
2023-01-10T23:39:23.345Z,56.73
2023-01-10T23:41:50.383Z,56.56
2023-01-10T23:44:16.819Z,56.85
2023-01-10T23:46:43.200Z,56.48
2023-01-10T23:49:10.102Z,56.60
2023-01-10T23:51:36.869Z,56.40
2023-01-10T23:54:03.616Z,56.44
2023-01-10T23:56:30.070Z,56.42
2023-01-10T23:58:56.535Z,56.52
